PWSweather.com
Personal Weather Stations
Station Observations
IPUGLIAA10
Acquaviva Delle FontiIT 70021

Acquaviva Delle FontiIT 70021

Lat: 40.8906215, Lon: 16.8456484

Elevation: 1020

Station Type: Davis Vantage Vue

http://www.meteoacquaviva.it

Latest ConditionsUpdated 2:30:06 PM GMT+01:01 Friday, Jan 19, 2018
Currently Today's Max Today's Min Today's Average
Temperature 55.4°F13.0°C 56.8°F13.8°C 40.7°F4.8°C 47.1°F8.4°C
Dew Point 45.7°F7.6°C 46.0°F7.8°C 28.8°F-1.8°C 38.2°F3.4°C
Winds 2.3 mph S3.7 kmh S 8.1 mph S13.0 kmh S - 3.1 mph 5.0 kmh
Wind Gusts 3.5 mph5.6 kmh 12.7 mph20.4 kmh - -
Humidity 70% 83% 59% 71%
Pressure 29.88 in1011.9 mb 29.99 in1015.6 mb 29.87 in1011.5 mb -
Hour Temp Dew Point Humidity Winds Wind Gusts Pressure Precip Precip Rate Daily Precip Total
02:30 PM 55.4°F13.0°C 45.7°F7.6°C 70% 2.3 mph S3.7 kmh S 3.5 mph5.6 kmh 29.88 in1011.9 mb - 0.00 in0.0 mm 0.00 in0.0 mm
02:10 PM 55.2°F12.9°C 45.6°F7.6°C 70% 2.3 mph SSE3.7 kmh SSE 3.5 mph5.6 kmh 29.88 in1011.9 mb - 0.00 in0.0 mm 0.00 in0.0 mm
02:00 PM 55.6°F13.1°C 46.0°F7.8°C 70% 3.5 mph S5.6 kmh S 4.6 mph7.4 kmh 29.88 in1011.9 mb - 0.00 in0.0 mm 0.00 in0.0 mm
01:50 PM 55.8°F13.2°C 45.8°F7.7°C 69% 4.6 mph S7.4 kmh S 5.8 mph9.3 kmh 29.88 in1011.9 mb - 0.00 in0.0 mm 0.00 in0.0 mm
01:40 PM 56.2°F13.4°C 45.8°F7.7°C 68% 3.5 mph S5.6 kmh S 5.8 mph9.3 kmh 29.88 in1011.9 mb - 0.00 in0.0 mm 0.00 in0.0 mm
01:30 PM 56.7°F13.7°C 44.2°F6.8°C 63% 4.6 mph SSW7.4 kmh SSW 8.1 mph13.0 kmh 29.88 in1011.9 mb - 0.00 in0.0 mm 0.00 in0.0 mm
01:10 PM 56.7°F13.7°C 45.9°F7.7°C 67% 2.3 mph SE3.7 kmh SE 3.5 mph5.6 kmh 29.87 in1011.5 mb - 0.00 in0.0 mm 0.00 in0.0 mm
01:00 PM 56.8°F13.8°C 44.7°F7.1°C 64% 3.5 mph S5.6 kmh S 5.8 mph9.3 kmh 29.88 in1011.9 mb - 0.00 in0.0 mm 0.00 in0.0 mm
12:50 PM 56.6°F13.7°C 44.6°F7.0°C 64% 4.6 mph S7.4 kmh S 6.9 mph11.1 kmh 29.88 in1011.9 mb - 0.00 in0.0 mm 0.00 in0.0 mm
12:40 PM 56.5°F13.6°C 44.5°F6.9°C 64% 4.6 mph S7.4 kmh S 8.1 mph13.0 kmh 29.89 in1012.2 mb - 0.00 in0.0 mm 0.00 in0.0 mm
12:20 PM 56.1°F13.4°C 44.1°F6.7°C 64% 8.1 mph S13.0 kmh S 12.7 mph20.4 kmh 29.89 in1012.2 mb - 0.00 in0.0 mm 0.00 in0.0 mm
12:10 PM 56.3°F13.5°C 44.3°F6.8°C 64% 4.6 mph S7.4 kmh S 6.9 mph11.1 kmh 29.90 in1012.5 mb - 0.00 in0.0 mm 0.00 in0.0 mm
12:00 PM 56.0°F13.3°C 44.0°F6.7°C 64% 5.8 mph S9.3 kmh S 11.5 mph18.5 kmh 29.90 in1012.5 mb - 0.00 in0.0 mm 0.00 in0.0 mm
11:30 AM 56.6°F13.7°C 43.3°F6.3°C 61% 6.9 mph SSE11.1 kmh SSE 11.5 mph18.5 kmh 29.91 in1012.9 mb - 0.00 in0.0 mm 0.00 in0.0 mm
11:20 AM 56.3°F13.5°C 43.5°F6.4°C 62% 3.5 mph S5.6 kmh S 11.5 mph18.5 kmh 29.92 in1013.2 mb - 0.00 in0.0 mm 0.00 in0.0 mm
11:10 AM 56.0°F13.3°C 43.2°F6.2°C 62% 3.5 mph S5.6 kmh S 9.2 mph14.8 kmh 29.92 in1013.2 mb - 0.00 in0.0 mm 0.00 in0.0 mm
10:50 AM 54.9°F12.7°C 43.4°F6.3°C 65% 3.5 mph S5.6 kmh S 9.2 mph14.8 kmh 29.92 in1013.2 mb - 0.00 in0.0 mm 0.00 in0.0 mm
10:40 AM 54.3°F12.4°C 43.6°F6.4°C 67% 4.6 mph SE7.4 kmh SE 6.9 mph11.1 kmh 29.93 in1013.5 mb - 0.00 in0.0 mm 0.00 in0.0 mm
10:30 AM 54.0°F12.2°C 44.0°F6.7°C 69% 3.5 mph SE5.6 kmh SE 5.8 mph9.3 kmh 29.93 in1013.5 mb - 0.00 in0.0 mm 0.00 in0.0 mm
10:20 AM 53.5°F11.9°C 43.2°F6.2°C 68% 2.3 mph SE3.7 kmh SE 4.6 mph7.4 kmh 29.93 in1013.5 mb - 0.00 in0.0 mm 0.00 in0.0 mm
10:10 AM 53.2°F11.8°C 42.5°F5.8°C 67% 4.6 mph S7.4 kmh S 10.4 mph16.7 kmh 29.93 in1013.5 mb - 0.00 in0.0 mm 0.00 in0.0 mm
10:00 AM 52.6°F11.4°C 43.1°F6.2°C 70% 3.5 mph SSE5.6 kmh SSE 5.8 mph9.3 kmh 29.93 in1013.5 mb - 0.00 in0.0 mm 0.00 in0.0 mm
09:50 AM 51.6°F10.9°C 42.5°F5.8°C 71% 3.5 mph S5.6 kmh S 4.6 mph7.4 kmh 29.92 in1013.2 mb - 0.00 in0.0 mm 0.00 in0.0 mm
09:40 AM 50.4°F10.2°C 41.7°F5.4°C 72% 3.5 mph S5.6 kmh S 8.1 mph13.0 kmh 29.92 in1013.2 mb - 0.00 in0.0 mm 0.00 in0.0 mm
09:30 AM 49.6°F9.8°C 41.3°F5.2°C 73% 4.6 mph S7.4 kmh S 10.4 mph16.7 kmh 29.92 in1013.2 mb - 0.00 in0.0 mm 0.00 in0.0 mm
09:20 AM 49.2°F9.6°C 40.9°F4.9°C 73% 4.6 mph SE7.4 kmh SE 9.2 mph14.8 kmh 29.92 in1013.2 mb - 0.00 in0.0 mm 0.00 in0.0 mm
09:10 AM 48.7°F9.3°C 40.4°F4.7°C 73% 4.6 mph SSE7.4 kmh SSE 6.9 mph11.1 kmh 29.92 in1013.2 mb - 0.00 in0.0 mm 0.00 in0.0 mm
08:40 AM 47.5°F8.6°C 40.0°F4.4°C 75% 2.3 mph S3.7 kmh S 6.9 mph11.1 kmh 29.92 in1013.2 mb - 0.00 in0.0 mm 0.00 in0.0 mm
08:30 AM 47.1°F8.4°C 39.9°F4.4°C 76% 2.3 mph S3.7 kmh S 3.5 mph5.6 kmh 29.92 in1013.2 mb - 0.00 in0.0 mm 0.00 in0.0 mm
08:20 AM 46.1°F7.8°C 39.3°F4.1°C 77% 3.5 mph S5.6 kmh S 5.8 mph9.3 kmh 29.92 in1013.2 mb - 0.00 in0.0 mm 0.00 in0.0 mm
08:10 AM 45.4°F7.4°C 38.9°F3.8°C 78% 2.3 mph SSE3.7 kmh SSE 5.8 mph9.3 kmh 29.92 in1013.2 mb - 0.00 in0.0 mm 0.00 in0.0 mm
08:00 AM 44.2°F6.8°C 38.5°F3.6°C 80% 2.3 mph SSE3.7 kmh SSE 4.6 mph7.4 kmh 29.92 in1013.2 mb - 0.00 in0.0 mm 0.00 in0.0 mm
07:50 AM 43.4°F6.3°C 38.0°F3.3°C 81% 2.3 mph S3.7 kmh S 3.5 mph5.6 kmh 29.92 in1013.2 mb - 0.00 in0.0 mm 0.00 in0.0 mm
07:40 AM 42.8°F6.0°C 37.4°F3.0°C 81% 3.5 mph SE5.6 kmh SE 5.8 mph9.3 kmh 29.92 in1013.2 mb - 0.00 in0.0 mm 0.00 in0.0 mm
07:30 AM 42.6°F5.9°C 37.5°F3.1°C 82% 3.5 mph SE5.6 kmh SE 6.9 mph11.1 kmh 29.92 in1013.2 mb - 0.00 in0.0 mm 0.00 in0.0 mm
07:20 AM 42.4°F5.8°C 37.0°F2.8°C 81% 3.5 mph SE5.6 kmh SE 4.6 mph7.4 kmh 29.91 in1012.9 mb - 0.00 in0.0 mm 0.00 in0.0 mm
07:10 AM 42.7°F5.9°C 37.3°F2.9°C 81% 2.3 mph SE3.7 kmh SE 3.5 mph5.6 kmh 29.91 in1012.9 mb - 0.00 in0.0 mm 0.00 in0.0 mm
07:00 AM 43.0°F6.1°C 37.0°F2.8°C 79% 4.6 mph SE7.4 kmh SE 8.1 mph13.0 kmh 29.92 in1013.2 mb - 0.00 in0.0 mm 0.00 in0.0 mm
06:50 AM 43.5°F6.4°C 37.4°F3.0°C 79% 1.2 mph SSE1.9 kmh SSE 5.8 mph9.3 kmh 29.92 in1013.2 mb - 0.00 in0.0 mm 0.00 in0.0 mm
06:40 AM 43.2°F6.2°C 37.5°F3.1°C 80% 2.3 mph SSE3.7 kmh SSE 4.6 mph7.4 kmh 29.92 in1013.2 mb - 0.00 in0.0 mm 0.00 in0.0 mm
06:30 AM 42.4°F5.8°C 37.3°F2.9°C 82% 2.3 mph SSE3.7 kmh SSE 4.6 mph7.4 kmh 29.92 in1013.2 mb - 0.00 in0.0 mm 0.00 in0.0 mm
06:20 AM 41.4°F5.2°C 36.6°F2.6°C 83% 2.3 mph SSE3.7 kmh SSE 5.8 mph9.3 kmh 29.93 in1013.5 mb - 0.00 in0.0 mm 0.00 in0.0 mm
06:10 AM 41.0°F5.0°C 35.9°F2.2°C 82% 1.2 mph SSE1.9 kmh SSE 3.5 mph5.6 kmh 29.93 in1013.5 mb - 0.00 in0.0 mm 0.00 in0.0 mm
06:00 AM 41.3°F5.2°C 35.9°F2.2°C 81% 1.2 mph SE1.9 kmh SE 3.5 mph5.6 kmh 29.93 in1013.5 mb - 0.00 in0.0 mm 0.00 in0.0 mm
05:30 AM 41.3°F5.2°C 35.6°F2.0°C 80% 1.2 mph SSE1.9 kmh SSE 3.5 mph5.6 kmh 29.93 in1013.5 mb - 0.00 in0.0 mm 0.00 in0.0 mm
05:20 AM 41.4°F5.2°C 35.7°F2.1°C 80% 3.5 mph SSE5.6 kmh SSE 6.9 mph11.1 kmh 29.94 in1013.9 mb - 0.00 in0.0 mm 0.00 in0.0 mm
05:10 AM 41.5°F5.3°C 36.1°F2.3°C 81% 3.5 mph SE5.6 kmh SE 6.9 mph11.1 kmh 29.93 in1013.5 mb - 0.00 in0.0 mm 0.00 in0.0 mm
05:00 AM 41.0°F5.0°C 35.3°F1.8°C 80% 2.3 mph S3.7 kmh S 4.6 mph7.4 kmh 29.94 in1013.9 mb - 0.00 in0.0 mm 0.00 in0.0 mm
04:30 AM 41.5°F5.3°C 34.8°F1.6°C 77% 3.5 mph SE5.6 kmh SE 3.5 mph5.6 kmh 29.94 in1013.9 mb - 0.00 in0.0 mm 0.00 in0.0 mm
04:20 AM 41.8°F5.4°C 34.8°F1.6°C 76% 2.3 mph S3.7 kmh S 5.8 mph9.3 kmh 29.94 in1013.9 mb - 0.00 in0.0 mm 0.00 in0.0 mm
04:10 AM 42.2°F5.7°C 34.8°F1.6°C 75% 1.2 mph SE1.9 kmh SE 3.5 mph5.6 kmh 29.94 in1013.9 mb - 0.00 in0.0 mm 0.00 in0.0 mm
04:00 AM 42.6°F5.9°C 34.9°F1.6°C 74% 4.6 mph SE7.4 kmh SE 6.9 mph11.1 kmh 29.93 in1013.5 mb - 0.00 in0.0 mm 0.00 in0.0 mm
03:50 AM 43.2°F6.2°C 35.1°F1.7°C 73% 1.2 mph S1.9 kmh S 3.5 mph5.6 kmh 29.93 in1013.5 mb - 0.00 in0.0 mm 0.00 in0.0 mm
03:40 AM 43.2°F6.2°C 35.1°F1.7°C 73% 2.3 mph SSE3.7 kmh SSE 4.6 mph7.4 kmh 29.93 in1013.5 mb - 0.00 in0.0 mm 0.00 in0.0 mm
03:30 AM 45.0°F7.2°C 35.8°F2.1°C 70% 2.3 mph SSE3.7 kmh SSE 3.5 mph5.6 kmh 29.93 in1013.5 mb - 0.00 in0.0 mm 0.00 in0.0 mm
03:20 AM 44.4°F6.9°C 36.3°F2.4°C 73% 3.5 mph S5.6 kmh S 5.8 mph9.3 kmh 29.93 in1013.5 mb - 0.00 in0.0 mm 0.00 in0.0 mm
03:10 AM 43.4°F6.3°C 35.3°F1.8°C 73% 2.3 mph S3.7 kmh S 3.5 mph5.6 kmh 29.94 in1013.9 mb - 0.00 in0.0 mm 0.00 in0.0 mm
03:00 AM 42.7°F5.9°C 34.6°F1.4°C 73% 3.5 mph S5.6 kmh S 5.8 mph9.3 kmh 29.94 in1013.9 mb - 0.00 in0.0 mm 0.00 in0.0 mm
02:50 AM 42.2°F5.7°C 34.5°F1.4°C 74% 2.3 mph S3.7 kmh S 3.5 mph5.6 kmh 29.95 in1014.2 mb - 0.00 in0.0 mm 0.00 in0.0 mm
02:40 AM 41.5°F5.3°C 33.8°F1.0°C 74% 2.3 mph SSE3.7 kmh SSE 3.5 mph5.6 kmh 29.95 in1014.2 mb - 0.00 in0.0 mm 0.00 in0.0 mm
02:30 AM 41.4°F5.2°C 33.4°F0.8°C 73% 1.2 mph SE1.9 kmh SE 3.5 mph5.6 kmh 29.95 in1014.2 mb - 0.00 in0.0 mm 0.00 in0.0 mm
02:20 AM 41.4°F5.2°C 33.0°F0.6°C 72% 2.3 mph SE3.7 kmh SE 3.5 mph5.6 kmh 29.95 in1014.2 mb - 0.00 in0.0 mm 0.00 in0.0 mm
02:10 AM 41.1°F5.1°C 32.8°F0.4°C 72% 2.3 mph SE3.7 kmh SE 3.5 mph5.6 kmh 29.95 in1014.2 mb - 0.00 in0.0 mm 0.00 in0.0 mm
02:00 AM 41.0°F5.0°C 32.0°F0.0°C 70% 1.2 mph SE1.9 kmh SE 3.5 mph5.6 kmh 29.96 in1014.6 mb - 0.00 in0.0 mm 0.00 in0.0 mm
01:50 AM 41.5°F5.3°C 31.8°F-0.1°C 68% 2.3 mph SE3.7 kmh SE 3.5 mph5.6 kmh 29.96 in1014.6 mb - 0.00 in0.0 mm 0.00 in0.0 mm
01:40 AM 42.1°F5.6°C 31.1°F-0.5°C 65% 2.3 mph S3.7 kmh S 3.5 mph5.6 kmh 29.96 in1014.6 mb - 0.00 in0.0 mm 0.00 in0.0 mm
01:30 AM 42.6°F5.9°C 30.8°F-0.7°C 63% 2.3 mph SE3.7 kmh SE 3.5 mph5.6 kmh 29.96 in1014.6 mb - 0.00 in0.0 mm 0.00 in0.0 mm
01:20 AM 44.6°F7.0°C 31.2°F-0.4°C 59% 2.3 mph SSE3.7 kmh SSE 3.5 mph5.6 kmh 29.97 in1014.9 mb - 0.00 in0.0 mm 0.00 in0.0 mm
01:10 AM 46.6°F8.1°C 33.0°F0.6°C 59% 2.3 mph S3.7 kmh S 3.5 mph5.6 kmh 29.97 in1014.9 mb - 0.00 in0.0 mm 0.00 in0.0 mm
01:00 AM 47.0°F8.3°C 34.2°F1.2°C 61% 2.3 mph SW3.7 kmh SW 9.2 mph14.8 kmh 29.97 in1014.9 mb - 0.00 in0.0 mm 0.00 in0.0 mm
12:50 AM 46.8°F8.2°C 34.9°F1.6°C 63% 5.8 mph SW9.3 kmh SW 11.5 mph18.5 kmh 29.97 in1014.9 mb - 0.00 in0.0 mm 0.00 in0.0 mm
12:40 AM 46.1°F7.8°C 34.6°F1.4°C 64% 3.5 mph SSW5.6 kmh SSW 6.9 mph11.1 kmh 29.97 in1014.9 mb - 0.00 in0.0 mm 0.00 in0.0 mm
12:30 AM 44.0°F6.7°C 33.8°F1.0°C 67% 2.3 mph SSW3.7 kmh SSW 3.5 mph5.6 kmh 29.97 in1014.9 mb - 0.00 in0.0 mm 0.00 in0.0 mm
12:20 AM 40.7°F4.8°C 30.2°F-1.0°C 66% 1.2 mph SSW1.9 kmh SSW 3.5 mph5.6 kmh 29.98 in1015.2 mb - 0.00 in0.0 mm 0.00 in0.0 mm
12:10 AM 41.3°F5.2°C 29.2°F-1.6°C 62% 1.2 mph SE1.9 kmh SE 2.3 mph3.7 kmh 29.98 in1015.2 mb - 0.00 in0.0 mm 0.00 in0.0 mm
12:00 AM 41.2°F5.1°C 28.8°F-1.8°C 61% 2.3 mph SSE3.7 kmh SSE 2.3 mph3.7 kmh 29.99 in1015.6 mb - 0.00 in0.0 mm 0.00 in0.0 mm